Time;durP1;ratioP1;P1;durP2;ratioP2;P2;SDS_P1;SDS_P2;PMS_P1;PMS_P2;Temp;Humidity;BMP_temperature;BMP_pressure;BME280_temperature;BME280_humidity;BME280_pressure;Samples;Min_cycle;Max_cycle;Signal;HPM_P1;HPM_P2
2023/02/15 00:02:31;;;;;;;37.00;18.90;;;;;;;6.88;100.00;100582.02;67774;1279;1016161;-61
2023/02/15 00:05:33;;;;;;;37.40;19.90;;;;;;;6.78;100.00;100582.01;67714;1279;1016398;-61
2023/02/15 00:08:36;;;;;;;40.00;20.50;;;;;;;6.78;100.00;100584.98;67699;1279;1016558;-61
2023/02/15 00:11:42;;;;;;;40.70;21.80;;;;;;;6.79;100.00;100586.33;67746;1279;1016313;-61
2023/02/15 00:14:45;;;;;;;41.20;20.20;;;;;;;6.71;100.00;100583.86;67793;1279;1016386;-62
2023/02/15 00:17:47;;;;;;;40.10;20.60;;;;;;;6.62;100.00;100584.73;67749;1279;1016410;-62
2023/02/15 00:20:50;;;;;;;38.00;20.00;;;;;;;6.67;100.00;100580.11;67725;1279;1018285;-61
2023/02/15 00:23:53;;;;;;;39.10;18.80;;;;;;;6.62;100.00;100574.65;67789;1279;1016359;-62
2023/02/15 00:26:55;;;;;;;39.50;18.30;;;;;;;6.59;100.00;100572.95;67747;1279;1016509;-61
2023/02/15 00:29:57;;;;;;;36.30;20.10;;;;;;;6.61;100.00;100569.60;67758;1279;1016365;-61
2023/02/15 00:33:00;;;;;;;41.90;20.60;;;;;;;6.67;100.00;100570.02;67736;1279;1016491;-61
2023/02/15 00:36:02;;;;;;;38.80;21.20;;;;;;;6.86;100.00;100569.19;67801;1279;1016190;-62
2023/02/15 00:39:05;;;;;;;38.50;20.40;;;;;;;6.93;100.00;100565.41;67794;1279;1016226;-61
2023/02/15 00:42:07;;;;;;;;;;;;;;;7.01;100.00;100563.70;67805;1279;1016239;-62
2023/02/15 00:45:10;;;;;;;42.80;20.80;;;;;;;6.97;100.00;100568.29;67759;1279;1016187;-61
2023/02/15 00:48:12;;;;;;;38.90;20.40;;;;;;;6.87;100.00;100565.52;67735;1279;1016459;-61
2023/02/15 00:51:15;;;;;;;38.90;21.10;;;;;;;6.94;100.00;100558.42;67771;1279;1016499;-61
2023/02/15 00:54:17;;;;;;;41.50;21.80;;;;;;;6.85;100.00;100555.13;67773;1279;1016132;-61
2023/02/15 00:57:19;;;;;;;41.10;21.50;;;;;;;6.70;100.00;100554.00;67780;1279;1016126;-61
2023/02/15 01:00:22;;;;;;;35.70;18.90;;;;;;;6.56;100.00;100554.23;67773;1279;1018483;-61
2023/02/15 01:03:24;;;;;;;40.60;22.40;;;;;;;6.56;100.00;100547.27;67760;1279;1016537;-61
2023/02/15 01:06:27;;;;;;;37.70;21.90;;;;;;;6.67;100.00;100546.04;67741;1279;1016029;-62
2023/02/15 01:09:29;;;;;;;43.60;22.70;;;;;;;6.65;100.00;100540.16;67735;1279;1016774;-61
2023/02/15 01:12:31;;;;;;;40.10;21.00;;;;;;;6.57;100.00;100537.18;67772;1279;1016848;-62
2023/02/15 01:15:34;;;;;;;36.80;19.60;;;;;;;6.46;100.00;100532.15;67806;1279;1016399;-61
2023/02/15 01:18:36;;;;;;;40.80;20.60;;;;;;;6.41;100.00;100529.27;67740;1279;1016394;-61
2023/02/15 01:21:40;;;;;;;43.50;21.40;;;;;;;6.31;100.00;100533.78;67725;1279;1016639;-61
2023/02/15 01:24:42;;;;;;;39.30;19.90;;;;;;;6.16;100.00;100531.41;67735;1279;1016336;-61
2023/02/15 01:27:45;;;;;;;39.80;21.20;;;;;;;6.19;100.00;100531.02;67752;1279;1016339;-61
2023/02/15 01:30:47;;;;;;;41.40;20.60;;;;;;;6.30;100.00;100527.73;67772;1279;1017821;-61
2023/02/15 01:33:50;;;;;;;37.40;20.30;;;;;;;6.44;100.00;100526.61;67785;1279;1016432;-61
2023/02/15 01:36:52;;;;;;;38.40;20.60;;;;;;;6.34;100.00;100522.44;67789;1279;1015883;-61
2023/02/15 01:39:55;;;;;;;40.00;19.90;;;;;;;6.19;100.00;100518.85;67750;1279;1016520;-61
2023/02/15 01:42:57;;;;;;;40.90;21.70;;;;;;;6.21;100.00;100519.52;67725;1279;1016314;-60
2023/02/15 01:45:59;;;;;;;41.30;21.30;;;;;;;6.36;100.00;100511.29;67743;1279;1016380;-61
2023/02/15 01:49:02;;;;;;;41.20;21.20;;;;;;;6.56;100.00;100515.64;67760;1279;1016250;-61
2023/02/15 01:52:04;;;;;;;42.50;21.00;;;;;;;6.69;100.00;100513.33;67788;1279;1018856;-61
2023/02/15 01:55:07;;;;;;;40.10;20.70;;;;;;;6.76;100.00;100506.60;67748;1279;1016322;-61
2023/02/15 01:58:09;;;;;;;42.20;20.80;;;;;;;6.67;100.00;100504.66;67723;1279;1016025;-61
2023/02/15 02:01:11;;;;;;;39.00;20.10;;;;;;;6.61;100.00;100502.00;67725;1279;1016301;-61
2023/02/15 02:04:14;;;;;;;39.90;21.40;;;;;;;6.55;100.00;100500.70;67786;1279;1016495;-61
2023/02/15 02:07:16;;;;;;;45.90;22.40;;;;;;;6.58;100.00;100499.63;67774;1279;1016340;-61
2023/02/15 02:10:19;;;;;;;42.00;21.00;;;;;;;6.73;100.00;100498.48;67798;1279;1016431;-61
2023/02/15 02:13:21;;;;;;;40.70;21.20;;;;;;;6.79;100.00;100496.45;67754;1279;1016416;-61
2023/02/15 02:16:23;;;;;;;40.20;21.90;;;;;;;6.88;100.00;100493.16;67713;1279;1016380;-61
2023/02/15 02:19:26;;;;;;;36.10;18.50;;;;;;;6.91;100.00;100487.35;67744;1279;1016206;-62
2023/02/15 02:22:28;;;;;;;42.80;21.20;;;;;;;6.92;100.00;100479.34;67764;1279;1016640;-62
2023/02/15 02:25:31;;;;;;;40.50;21.00;;;;;;;6.96;100.00;100480.13;67748;1279;1016256;-62
2023/02/15 02:28:33;;;;;;;38.30;20.20;;;;;;;7.06;100.00;100473.33;67754;1279;1016150;-61
2023/02/15 02:31:35;;;;;;;39.60;20.30;;;;;;;6.96;100.00;100476.99;67704;1279;1016466;-61
2023/02/15 02:34:38;;;;;;;39.70;21.50;;;;;;;6.79;100.00;100473.17;67728;1279;1016198;-61
2023/02/15 02:37:41;;;;;;;41.70;22.10;;;;;;;6.71;100.00;100469.66;67710;1279;1016434;-62
2023/02/15 02:40:43;;;;;;;38.90;20.50;;;;;;;6.76;100.00;100462.77;67745;1279;1016271;-62
2023/02/15 02:43:47;;;;;;;42.40;23.60;;;;;;;6.83;100.00;100454.98;65616;1278;5369917;-61
2023/02/15 02:46:49;;;;;;;41.60;21.80;;;;;;;6.61;100.00;100455.40;67762;1279;1016249;-61
2023/02/15 02:49:52;;;;;;;43.80;22.70;;;;;;;6.71;100.00;100457.32;67708;1279;1016093;-61
2023/02/15 02:52:54;;;;;;;41.70;23.20;;;;;;;6.84;100.00;100451.30;67728;1279;1016496;-61
2023/02/15 02:55:57;;;;;;;39.80;20.20;;;;;;;6.82;100.00;100453.63;67760;1279;1016313;-61
2023/02/15 02:58:59;;;;;;;42.80;19.90;;;;;;;6.87;100.00;100451.27;67818;1279;1016440;-61
2023/02/15 03:02:02;;;;;;;37.10;19.70;;;;;;;7.03;100.00;100451.11;67778;1279;1016447;-62
2023/02/15 03:05:04;;;;;;;38.70;19.70;;;;;;;6.98;100.00;100451.05;67727;1279;1016408;-60
2023/02/15 03:08:09;;;;;;;40.90;21.30;;;;;;;6.94;100.00;100450.26;67731;1279;1016092;-62
2023/02/15 03:11:12;;;;;;;37.50;19.90;;;;;;;7.01;100.00;100451.17;67732;1279;1016161;-61
2023/02/15 03:14:14;;;;;;;41.40;21.70;;;;;;;6.92;100.00;100453.79;67731;1279;1016466;-61
2023/02/15 03:17:16;;;;;;;41.40;20.80;;;;;;;6.84;100.00;100451.48;67774;1279;1016565;-61
2023/02/15 03:20:19;;;;;;;41.80;21.20;;;;;;;6.93;100.00;100454.63;67789;1279;1016564;-61
2023/02/15 03:23:21;;;;;;;38.80;19.80;;;;;;;6.87;100.00;100452.11;67764;1279;1016016;-61
2023/02/15 03:26:24;;;;;;;39.10;19.90;;;;;;;6.76;100.00;100445.38;67739;1279;1016447;-61
2023/02/15 03:29:26;;;;;;;38.20;18.90;;;;;;;6.84;100.00;100444.36;67757;1279;1016117;-62
2023/02/15 03:32:28;;;;;;;37.00;18.80;;;;;;;6.90;100.00;100449.83;67708;1279;1016402;-61
2023/02/15 03:35:31;;;;;;;38.20;19.30;;;;;;;6.80;100.00;100452.95;67724;1279;1016196;-61
2023/02/15 03:38:33;;;;;;;37.70;19.20;;;;;;;6.70;100.00;100455.23;67755;1279;1016250;-61
2023/02/15 03:41:36;;;;;;;39.40;21.40;;;;;;;6.74;100.00;100455.87;67772;1279;1016390;-61
2023/02/15 03:44:38;;;;;;;43.40;21.60;;;;;;;6.80;100.00;100454.35;67711;1279;1016252;-61
2023/02/15 03:47:40;;;;;;;38.50;20.10;;;;;;;6.91;100.00;100452.92;67747;1279;1017152;-61
2023/02/15 03:54:03;;;;;;;38.30;20.90;;;;;;;6.72;100.00;100448.77;67797;1279;1016454;-60
2023/02/15 04:03:46;;;;;;;38.70;20.00;;;;;;;6.86;100.00;100448.84;67746;1279;1018488;-61
2023/02/15 04:06:48;;;;;;;38.00;18.70;;;;;;;6.73;100.00;100452.05;67721;1279;1016484;-61
2023/02/15 04:13:11;;;;;;;43.60;21.50;;;;;;;6.75;100.00;100449.75;67725;1279;1016460;-61
2023/02/15 04:16:13;;;;;;;51.80;24.00;;;;;;;6.82;100.00;100449.97;67761;1279;1016948;-61
2023/02/15 04:25:56;;;;;;;42.00;20.30;;;;;;;6.91;100.00;100455.36;67731;1279;1016471;-61
2023/02/15 04:28:58;;;;;;;35.30;17.60;;;;;;;6.90;100.00;100454.16;67731;1279;1016443;-60
2023/02/15 04:32:01;;;;;;;35.70;17.90;;;;;;;6.89;100.00;100450.52;67741;1279;1019358;-60
2023/02/15 04:35:03;;;;;;;39.40;20.40;;;;;;;6.89;100.00;100450.01;67781;1279;1016145;-61
2023/02/15 04:38:06;;;;;;;38.00;18.90;;;;;;;6.87;100.00;100451.27;67769;1279;1016356;-60
2023/02/15 04:41:10;;;;;;;40.30;19.00;;;;;;;6.94;100.00;100455.30;67759;1279;1016218;-60
2023/02/15 04:44:12;;;;;;;38.50;18.50;;;;;;;6.97;100.00;100451.59;67747;1279;1016497;-60
2023/02/15 04:47:15;;;;;;;44.10;20.80;;;;;;;6.87;100.00;100448.83;67724;1279;1016500;-61
2023/02/15 04:50:17;;;;;;;40.20;20.30;;;;;;;6.66;100.00;100450.45;67785;1279;1016326;-61
2023/02/15 04:53:20;;;;;;;43.70;22.20;;;;;;;6.44;100.00;100449.80;67748;1279;1016433;-60
2023/02/15 04:56:22;;;;;;;46.40;22.70;;;;;;;6.36;100.00;100451.67;67712;1279;1018890;-60
2023/02/15 04:59:25;;;;;;;44.10;22.90;;;;;;;6.41;100.00;100455.59;67708;1279;1016271;-60
2023/02/15 05:02:27;;;;;;;39.90;21.10;;;;;;;6.41;100.00;100462.89;67719;1279;1017127;-60
2023/02/15 05:05:30;;;;;;;42.40;21.60;;;;;;;6.48;100.00;100458.25;67773;1279;1016169;-60
2023/02/15 05:08:32;;;;;;;37.10;19.60;;;;;;;6.62;100.00;100455.39;67728;1279;1015641;-61
2023/02/15 05:11:34;;;;;;;37.60;19.90;;;;;;;6.61;100.00;100458.71;67734;1279;1016304;-60
2023/02/15 05:14:37;;;;;;;39.80;19.90;;;;;;;6.68;100.00;100461.02;67698;1279;1016111;-60
2023/02/15 05:17:39;;;;;;;41.60;21.10;;;;;;;6.90;100.00;100456.23;67753;1279;1016499;-60
2023/02/15 05:20:42;;;;;;;42.50;21.80;;;;;;;6.92;100.00;100455.16;67758;1279;1016421;-60
2023/02/15 05:23:44;;;;;;;43.00;21.40;;;;;;;6.78;100.00;100454.05;67776;1279;1018516;-61
2023/02/15 05:30:11;;;;;;;46.90;24.90;;;;;;;6.55;100.00;100450.66;67732;1279;1016363;-61
2023/02/15 05:33:13;;;;;;;47.30;24.60;;;;;;;6.44;100.00;100456.24;67763;1279;1016540;-62
2023/02/15 05:36:16;;;;;;;46.00;24.20;;;;;;;6.42;100.00;100460.44;67786;1279;1019430;-61
2023/02/15 05:39:19;;;;;;;46.00;24.10;;;;;;;6.37;100.00;100460.35;67788;1279;1017105;-62
2023/02/15 05:42:22;;;;;;;46.80;25.90;;;;;;;6.33;100.00;100467.55;67779;1279;1016286;-61
2023/02/15 05:45:24;;;;;;;47.50;26.20;;;;;;;6.35;100.00;100464.55;67738;1279;1015887;-61
2023/02/15 05:48:27;;;;;;;49.50;26.10;;;;;;;6.53;100.00;100463.03;67717;1279;1016005;-62
2023/02/15 05:51:29;;;;;;;48.80;25.20;;;;;;;6.54;100.00;100462.48;67747;1279;1015746;-62
2023/02/15 05:54:31;;;;;;;46.30;25.20;;;;;;;6.52;100.00;100464.44;67730;1279;1016555;-62
2023/02/15 05:57:34;;;;;;;47.50;25.00;;;;;;;6.45;100.00;100464.21;67780;1279;1016531;-61
2023/02/15 06:00:36;;;;;;;51.10;25.60;;;;;;;6.47;100.00;100466.79;67752;1279;1017709;-61
2023/02/15 06:03:39;;;;;;;51.00;24.60;;;;;;;6.46;100.00;100470.80;67740;1279;1016376;-61
2023/02/15 06:06:41;;;;;;;73.20;36.80;;;;;;;6.49;100.00;100467.98;67737;1279;1017662;-61
2023/02/15 06:09:44;;;;;;;52.40;26.90;;;;;;;6.26;100.00;100464.71;67741;1279;1016511;-61
2023/02/15 06:12:46;;;;;;;59.10;32.40;;;;;;;6.17;100.00;100464.70;67759;1279;1016499;-62
2023/02/15 06:15:48;;;;;;;51.00;26.40;;;;;;;6.15;100.00;100466.81;67733;1279;1016285;-61
2023/02/15 06:18:51;;;;;;;43.80;22.50;;;;;;;6.17;100.00;100467.66;67737;1279;1016442;-61
2023/02/15 06:21:53;;;;;;;48.30;24.90;;;;;;;6.22;100.00;100471.73;67724;1279;1016113;-61
2023/02/15 06:24:55;;;;;;;48.00;23.90;;;;;;;6.28;100.00;100467.65;67762;1279;1015918;-62
2023/02/15 06:27:58;;;;;;;46.20;24.40;;;;;;;6.23;100.00;100464.94;67748;1279;1016825;-61
2023/02/15 06:31:00;;;;;;;44.00;23.70;;;;;;;6.19;100.00;100463.98;67771;1279;1016417;-61
2023/02/15 06:34:03;;;;;;;48.10;25.50;;;;;;;6.24;100.00;100467.70;67780;1279;1016346;-61
2023/02/15 06:37:05;;;;;;;48.40;25.10;;;;;;;6.40;100.00;100470.38;67774;1279;1018001;-62
2023/02/15 06:40:07;;;;;;;51.10;26.10;;;;;;;6.49;100.00;100468.30;67702;1279;1016070;-61
2023/02/15 06:43:10;;;;;;;47.50;23.60;;;;;;;6.63;100.00;100467.54;67704;1279;1016438;-61
2023/02/15 06:46:12;;;;;;;45.50;23.30;;;;;;;6.61;100.00;100473.14;67741;1279;1016395;-61
2023/02/15 06:49:15;;;;;;;48.00;23.60;;;;;;;6.63;100.00;100471.02;67775;1279;1016157;-61
2023/02/15 06:52:17;;;;;;;44.40;21.90;;;;;;;6.58;100.00;100468.50;67771;1279;1016759;-61
2023/02/15 06:55:19;;;;;;;44.60;22.80;;;;;;;6.61;100.00;100465.49;67741;1279;1016486;-61
2023/02/15 06:58:22;;;;;;;44.30;21.00;;;;;;;6.63;100.00;100468.93;67712;1279;1016824;-61
2023/02/15 07:01:24;;;;;;;48.90;23.10;;;;;;;6.62;100.00;100468.42;67714;1279;1017173;-61
2023/02/15 07:04:28;;;;;;;50.90;24.30;;;;;;;6.61;100.00;100466.36;67782;1279;1016092;-61
2023/02/15 07:07:30;;;;;;;44.40;22.40;;;;;;;6.60;100.00;100466.71;67768;1279;1016498;-62
2023/02/15 07:10:33;;;;;;;46.70;23.40;;;;;;;6.62;100.00;100465.84;67752;1279;1018965;-62
2023/02/15 07:13:36;;;;;;;47.80;24.10;;;;;;;6.70;100.00;100466.89;67735;1279;1016740;-62
2023/02/15 07:16:38;;;;;;;47.70;22.30;;;;;;;6.74;100.00;100460.04;67771;1279;1016330;-62
2023/02/15 07:19:41;;;;;;;50.50;25.00;;;;;;;6.70;100.00;100458.55;67791;1279;1016007;-61
2023/02/15 07:22:43;;;;;;;47.40;24.20;;;;;;;6.64;100.00;100459.35;67770;1279;1016203;-62
2023/02/15 07:25:46;;;;;;;;;;;;;;;6.65;100.00;100463.33;67724;1279;1016445;-61
2023/02/15 07:28:48;;;;;;;53.90;27.50;;;;;;;6.65;100.00;100458.30;67759;1279;1016615;-61
2023/02/15 07:31:51;;;;;;;54.30;26.60;;;;;;;6.51;100.00;100453.86;67768;1279;1016379;-60
2023/02/15 07:34:53;;;;;;;50.40;25.60;;;;;;;6.44;100.00;100450.34;67730;1279;1016420;-61
2023/02/15 07:37:56;;;;;;;54.80;27.80;;;;;;;6.50;100.00;100447.98;67731;1279;1016229;-61
2023/02/15 07:40:58;;;;;;;55.80;26.10;;;;;;;6.56;100.00;100447.52;67724;1279;1016265;-61
2023/02/15 07:44:01;;;;;;;54.60;25.20;;;;;;;6.61;100.00;100446.71;67746;1279;1016409;-61
2023/02/15 07:47:03;;;;;;;54.20;26.60;;;;;;;6.73;100.00;100445.45;67786;1279;1020176;-61
2023/02/15 07:50:06;;;;;;;51.80;26.70;;;;;;;6.75;100.00;100447.49;67707;1279;1019299;-62
2023/02/15 07:53:08;;;;;;;53.80;26.80;;;;;;;6.73;100.00;100443.89;67726;1279;1016375;-61
2023/02/15 07:56:10;;;;;;;53.80;27.20;;;;;;;6.82;100.00;100444.23;67690;1279;1016376;-61
2023/02/15 07:59:13;;;;;;;56.60;28.40;;;;;;;6.81;100.00;100435.73;67701;1279;1016642;-61
2023/02/15 08:02:15;;;;;;;57.00;27.60;;;;;;;6.95;100.00;100432.84;67775;1279;1015957;-61
2023/02/15 08:05:18;;;;;;;55.40;27.30;;;;;;;7.04;100.00;100427.62;67789;1279;1016488;-61
2023/02/15 08:08:30;;;;;;;62.20;29.60;;;;;;;6.90;100.00;100430.15;67723;1279;1016417;-61
2023/02/15 08:11:37;;;;;;;58.00;27.50;;;;;;;6.82;100.00;100432.75;67704;1279;1016290;-60
2023/02/15 08:14:39;;;;;;;57.00;28.60;;;;;;;6.79;100.00;100428.30;67766;1279;1016504;-61
2023/02/15 08:17:42;;;;;;;57.00;27.90;;;;;;;6.70;100.00;100424.80;67769;1279;1016829;-61
2023/02/15 08:20:44;;;;;;;57.00;28.00;;;;;;;6.66;100.00;100426.11;67715;1279;1017147;-61
2023/02/15 08:23:47;;;;;;;54.50;28.30;;;;;;;6.74;100.00;100424.40;67719;1279;1016672;-61
2023/02/15 08:26:49;;;;;;;54.10;26.60;;;;;;;6.88;100.00;100422.20;67779;1279;1016327;-62
2023/02/15 08:29:51;;;;;;;55.40;26.10;;;;;;;6.81;100.00;100419.04;67764;1279;1016282;-61
2023/02/15 08:32:54;;;;;;;51.80;26.00;;;;;;;6.74;100.00;100416.58;67799;1279;1016410;-62
2023/02/15 08:35:56;;;;;;;52.30;26.70;;;;;;;6.78;100.00;100411.45;67708;1279;1016149;-61
2023/02/15 08:38:59;;;;;;;56.70;27.90;;;;;;;6.89;100.00;100411.23;67739;1279;1016275;-62
2023/02/15 08:42:01;;;;;;;56.80;27.40;;;;;;;6.95;100.00;100412.16;67746;1279;1016442;-61
2023/02/15 08:45:03;;;;;;;54.20;24.60;;;;;;;6.83;100.00;100408.40;67758;1279;1015924;-61
2023/02/15 08:48:06;;;;;;;52.20;25.80;;;;;;;6.92;100.00;100414.13;67783;1279;1016493;-62
2023/02/15 08:51:10;;;;;;;56.40;25.60;;;;;;;6.96;100.00;100411.42;67717;1279;1016150;-61
2023/02/15 08:54:12;;;;;;;54.00;30.50;;;;;;;6.92;100.00;100413.06;67765;1279;1016507;-61
2023/02/15 08:57:15;;;;;;;53.10;25.70;;;;;;;6.92;100.00;100411.52;67732;1279;1015993;-61
2023/02/15 09:00:17;;;;;;;52.80;27.20;;;;;;;7.12;100.00;100405.36;67719;1279;1016488;-62
2023/02/15 09:03:20;;;;;;;49.70;25.70;;;;;;;7.20;100.00;100404.84;67789;1279;1016490;-61
2023/02/15 09:06:22;;;;;;;50.90;25.40;;;;;;;7.33;100.00;100403.51;67762;1279;1016479;-61
2023/02/15 09:09:25;;;;;;;58.50;29.20;;;;;;;7.33;100.00;100400.37;67751;1279;1016202;-61
2023/02/15 09:12:27;;;;;;;56.10;28.80;;;;;;;7.26;100.00;100400.17;67752;1279;1016318;-62
2023/02/15 09:15:30;;;;;;;52.60;26.40;;;;;;;7.28;100.00;100394.90;67739;1279;1016456;-61
2023/02/15 09:18:35;;;;;;;50.40;25.60;;;;;;;7.39;100.00;100393.27;67783;1279;1018755;-61
2023/02/15 09:21:37;;;;;;;49.70;25.10;;;;;;;7.49;100.00;100390.95;67754;1279;1018344;-61
2023/02/15 09:24:40;;;;;;;51.50;25.90;;;;;;;7.41;100.00;100382.09;67773;1279;1016311;-61
2023/02/15 09:27:43;;;;;;;58.60;28.30;;;;;;;7.47;100.00;100382.65;67791;1279;1016250;-61
2023/02/15 09:30:45;;;;;;;53.50;27.10;;;;;;;7.57;100.00;100380.84;67755;1279;1016249;-62
2023/02/15 09:33:48;;;;;;;56.20;26.50;;;;;;;7.69;100.00;100380.90;67784;1279;1016260;-62
2023/02/15 09:36:50;;;;;;;49.80;25.90;;;;;;;7.52;100.00;100378.19;67790;1279;1016469;-62
2023/02/15 09:39:53;;;;;;;56.70;29.20;;;;;;;7.35;100.00;100377.19;67724;1279;1016454;-61
2023/02/15 09:42:56;;;;;;;58.20;29.10;;;;;;;7.37;100.00;100377.50;67762;1280;1016550;-61
2023/02/15 09:45:58;;;;;;;50.50;24.60;;;;;;;7.37;100.00;100375.75;67775;1279;1015967;-61
2023/02/15 09:49:01;;;;;;;49.50;25.20;;;;;;;7.40;100.00;100370.48;67733;1279;1016376;-62
2023/02/15 09:52:03;;;;;;;61.30;30.50;;;;;;;7.58;100.00;100370.73;67729;1279;1016851;-61
2023/02/15 09:55:06;;;;;;;52.00;26.30;;;;;;;7.73;100.00;100371.06;67736;1279;1016479;-61
2023/02/15 09:58:09;;;;;;;53.50;26.20;;;;;;;7.74;100.00;100365.46;67774;1279;1016442;-61
2023/02/15 10:01:11;;;;;;;50.80;24.60;;;;;;;7.76;100.00;100364.89;67707;1279;1016180;-61
2023/02/15 10:04:14;;;;;;;51.20;24.90;;;;;;;7.74;100.00;100362.86;67749;1279;1016296;-61
2023/02/15 10:07:17;;;;;;;47.70;24.10;;;;;;;7.76;100.00;100359.31;67747;1279;1016414;-61
2023/02/15 10:10:20;;;;;;;57.70;29.20;;;;;;;7.74;100.00;100354.67;67735;1279;1016431;-62
2023/02/15 10:13:23;;;;;;;50.70;25.60;;;;;;;7.72;100.00;100354.73;67709;1280;1016670;-61
2023/02/15 10:16:25;;;;;;;57.60;28.10;;;;;;;7.79;100.00;100355.77;67732;1280;1016295;-61
2023/02/15 10:19:28;;;;;;;68.90;33.60;;;;;;;7.97;100.00;100351.64;67784;1279;1016140;-61
2023/02/15 10:22:30;;;;;;;64.00;30.20;;;;;;;8.03;100.00;100346.27;67794;1279;1020646;-61
2023/02/15 10:25:33;;;;;;;;;;;;;;;8.19;100.00;100345.84;67780;1279;1016474;-61
2023/02/15 10:28:36;;;;;;;49.10;23.50;;;;;;;8.20;100.00;100341.12;67734;1279;1016420;-62
2023/02/15 10:31:38;;;;;;;51.50;25.70;;;;;;;8.34;100.00;100340.04;67743;1279;1016443;-61
2023/02/15 10:34:40;;;;;;;57.60;27.30;;;;;;;8.47;100.00;100339.17;67765;1279;1016418;-61
2023/02/15 10:37:43;;;;;;;47.30;24.20;;;;;;;8.35;100.00;100336.52;67781;1279;1016099;-61
2023/02/15 10:40:45;;;;;;;48.00;24.70;;;;;;;8.20;100.00;100337.61;67733;1279;1019923;-61
2023/02/15 10:43:48;;;;;;;50.40;24.10;;;;;;;8.10;100.00;100333.89;67732;1279;1016360;-61
2023/02/15 10:46:50;;;;;;;58.40;27.70;;;;;;;8.07;100.00;100333.63;67760;1279;1016375;-61
2023/02/15 10:49:52;;;;;;;60.80;28.80;;;;;;;8.08;100.00;100332.56;67775;1279;1016319;-61
2023/02/15 10:52:57;;;;;;;51.60;24.80;;;;;;;8.27;100.00;100328.92;67760;1280;1016533;-61
2023/02/15 10:55:59;;;;;;;65.00;28.80;;;;;;;8.35;100.00;100322.23;67749;1279;1016263;-61
2023/02/15 10:59:01;;;;;;;69.90;31.50;;;;;;;8.34;100.00;100319.83;67759;1279;1016386;-61
2023/02/15 11:02:04;;;;;;;49.30;24.80;;;;;;;8.45;100.00;100316.23;67719;1279;1016903;-61
2023/02/15 11:05:08;;;;;;;54.80;26.10;;;;;;;8.54;100.00;100317.55;67738;1279;1016885;-61
2023/02/15 11:08:11;;;;;;;51.00;24.70;;;;;;;8.50;100.00;100314.88;67796;1279;1017284;-60
2023/02/15 11:11:13;;;;;;;49.10;24.10;;;;;;;8.55;100.00;100309.66;67762;1279;1016057;-62
2023/02/15 11:14:16;;;;;;;;;;;;;;;8.58;100.00;100302.10;67745;1279;1016428;-61
2023/02/15 11:17:18;;;;;;;44.40;22.00;;;;;;;8.54;100.00;100303.60;67729;1279;1016392;-61
2023/02/15 11:20:21;;;;;;;47.60;23.70;;;;;;;8.41;100.00;100306.90;67775;1279;1016261;-61
2023/02/15 11:23:23;;;;;;;49.20;22.00;;;;;;;8.38;100.00;100302.28;67775;1279;1016226;-61
2023/02/15 11:26:26;;;;;;;48.20;24.20;;;;;;;8.40;100.00;100300.48;67759;1279;1016362;-61
2023/02/15 11:29:28;;;;;;;50.70;27.00;;;;;;;8.39;100.00;100292.66;67742;1279;1016286;-60
2023/02/15 11:32:30;;;;;;;47.00;23.70;;;;;;;8.43;100.00;100285.23;67745;1279;1016340;-60
2023/02/15 11:35:33;;;;;;;47.40;25.10;;;;;;;8.42;100.00;100288.23;67806;1279;1018696;-61
2023/02/15 11:38:36;;;;;;;50.20;25.00;;;;;;;8.34;100.00;100286.88;67778;1279;1016484;-61
2023/02/15 11:41:38;;;;;;;48.00;24.70;;;;;;;8.38;100.00;100284.86;67745;1279;1016437;-62
2023/02/15 11:44:41;;;;;;;47.60;23.90;;;;;;;8.44;100.00;100287.14;67778;1279;1016444;-61
2023/02/15 11:47:43;;;;;;;47.40;23.10;;;;;;;8.53;100.00;100277.30;67808;1279;1016481;-61
2023/02/15 11:50:46;;;;;;;48.80;22.90;;;;;;;8.62;100.00;100275.30;67788;1279;1016158;-61
2023/02/15 11:53:48;;;;;;;50.50;25.90;;;;;;;8.69;100.00;100271.96;67730;1279;1016560;-61
2023/02/15 11:56:50;;;;;;;45.30;22.70;;;;;;;8.65;100.00;100269.79;67751;1279;1016425;-61
2023/02/15 11:59:53;;;;;;;47.80;23.60;;;;;;;8.72;100.00;100259.81;67779;1279;1016388;-60
2023/02/15 12:02:55;;;;;;;52.60;27.30;;;;;;;8.71;100.00;100256.02;67756;1279;1016268;-62
2023/02/15 12:05:58;;;;;;;;;;;;;;;8.74;100.00;100252.80;67745;1279;1016816;-62
2023/02/15 12:09:01;;;;;;;48.30;24.10;;;;;;;8.84;100.00;100250.19;67722;1279;1016623;-61
2023/02/15 12:12:03;;;;;;;54.00;24.30;;;;;;;8.86;100.00;100250.85;67766;1279;1016272;-60
2023/02/15 12:15:05;;;;;;;51.50;24.60;;;;;;;8.76;100.00;100249.41;67788;1279;1016563;-61
2023/02/15 12:18:08;;;;;;;52.40;26.40;;;;;;;8.93;100.00;100248.38;67731;1278;1016331;-61
2023/02/15 12:21:11;;;;;;;54.20;27.90;;;;;;;9.14;100.00;100242.80;67741;1279;1016346;-61
2023/02/15 12:24:14;;;;;;;53.50;27.40;;;;;;;9.14;100.00;100237.77;67742;1278;1017109;-61
2023/02/15 12:27:16;;;;;;;50.90;25.70;;;;;;;9.14;100.00;100235.85;67758;1279;1016749;-61
2023/02/15 12:30:19;;;;;;;49.20;23.80;;;;;;;9.26;100.00;100232.45;67784;1279;1016449;-61
2023/02/15 12:33:21;;;;;;;51.40;25.20;;;;;;;9.27;100.00;100230.52;67803;1279;1016510;-61
2023/02/15 12:36:23;;;;;;;49.10;23.90;;;;;;;9.23;100.00;100223.66;67769;1279;1016490;-61
2023/02/15 12:39:27;;;;;;;50.70;26.20;;;;;;;9.33;100.00;100218.80;67765;1279;1016538;-61
2023/02/15 12:42:29;;;;;;;45.40;22.90;;;;;;;9.40;100.00;100215.93;67796;1279;1016249;-61
2023/02/15 12:45:32;;;;;;;51.80;26.60;;;;;;;9.46;100.00;100210.00;67722;1279;1016410;-62
2023/02/15 12:48:34;;;;;;;48.60;23.70;;;;;;;9.43;100.00;100207.98;67728;1279;1018859;-61
2023/02/15 12:51:37;;;;;;;50.20;25.00;;;;;;;9.40;100.00;100204.42;67774;1279;1016698;-61
2023/02/15 12:54:39;;;;;;;52.10;26.30;;;;;;;9.55;100.00;100200.41;67799;1279;1016279;-62
2023/02/15 12:57:43;;;;;;;;;;;;;;;9.77;100.00;100192.14;67724;1279;1015773;-62
2023/02/15 13:00:46;;;;;;;49.70;24.70;;;;;;;9.86;100.00;100191.65;67748;1279;1016416;-62
2023/02/15 13:03:48;;;;;;;44.40;22.20;;;;;;;9.80;100.00;100188.52;67743;1279;1016359;-61
2023/02/15 13:06:51;;;;;;;44.30;23.30;;;;;;;9.68;100.00;100187.92;67739;1279;1018634;-61
2023/02/15 13:09:54;;;;;;;48.40;22.20;;;;;;;9.52;100.00;100196.69;67746;1279;1016074;-61
2023/02/15 13:12:57;;;;;;;48.70;23.90;;;;;;;9.46;100.00;100191.48;67702;1279;1016300;-61
2023/02/15 13:16:00;;;;;;;47.80;25.10;;;;;;;9.46;100.00;100190.08;67725;1279;1016456;-61
2023/02/15 13:19:04;;;;;;;51.30;25.20;;;;;;;9.54;100.00;100184.92;67721;1279;1016308;-62
2023/02/15 13:22:06;;;;;;;52.00;25.60;;;;;;;9.59;100.00;100184.20;67691;1279;1016455;-62
2023/02/15 13:25:09;;;;;;;52.90;25.20;;;;;;;9.74;100.00;100186.83;67773;1279;1016406;-62
2023/02/15 13:28:12;;;;;;;53.80;26.10;;;;;;;9.59;100.00;100184.55;67706;1279;1016495;-60
2023/02/15 13:31:15;;;;;;;50.10;25.80;;;;;;;9.69;100.00;100176.85;67733;1279;1016404;-61
2023/02/15 13:34:19;;;;;;;51.10;25.10;;;;;;;9.83;100.00;100169.73;67773;1279;1016480;-61
2023/02/15 13:37:22;;;;;;;50.10;25.50;;;;;;;10.10;100.00;100162.63;67765;1279;1016056;-61
2023/02/15 13:40:24;;;;;;;54.80;26.60;;;;;;;10.39;100.00;100161.91;67691;1279;1016443;-61
2023/02/15 13:43:29;;;;;;;50.10;25.90;;;;;;;10.57;100.00;100160.48;67750;1279;1016487;-61
2023/02/15 13:46:32;;;;;;;50.70;25.20;;;;;;;10.64;100.00;100161.95;67804;1279;1018615;-61
2023/02/15 13:49:34;;;;;;;59.70;31.90;;;;;;;10.84;100.00;100161.52;67705;1279;1016316;-62
2023/02/15 13:52:37;;;;;;;65.70;36.00;;;;;;;10.80;100.00;100163.09;67705;1279;1017371;-61
2023/02/15 13:55:40;;;;;;;49.70;25.50;;;;;;;10.66;100.00;100161.71;67772;1279;1016595;-62